sensor_id;sensor_type;location;lat;lon;timestamp;P1;durP1;ratioP1;P2;durP2;ratioP2
10452;SDS011;5274;51.992;8.518;2022-08-11T00:00:18;5.20;;;2.50;;
10452;SDS011;5274;51.992;8.518;2022-08-11T00:02:45;4.18;;;2.60;;
10452;SDS011;5274;51.992;8.518;2022-08-11T00:05:14;3.85;;;2.55;;
10452;SDS011;5274;51.992;8.518;2022-08-11T00:07:46;3.35;;;2.28;;
10452;SDS011;5274;51.992;8.518;2022-08-11T00:10:16;3.15;;;2.38;;
10452;SDS011;5274;51.992;8.518;2022-08-11T00:12:49;3.78;;;2.20;;
10452;SDS011;5274;51.992;8.518;2022-08-11T00:15:35;5.03;;;2.25;;
10452;SDS011;5274;51.992;8.518;2022-08-11T00:18:05;2.80;;;2.45;;
10452;SDS011;5274;51.992;8.518;2022-08-11T00:20:31;2.80;;;2.50;;
10452;SDS011;5274;51.992;8.518;2022-08-11T00:23:05;7.00;;;2.47;;
10452;SDS011;5274;51.992;8.518;2022-08-11T00:25:40;3.00;;;2.60;;
10452;SDS011;5274;51.992;8.518;2022-08-11T00:30:55;4.18;;;2.72;;
10452;SDS011;5274;51.992;8.518;2022-08-11T00:33:24;3.55;;;2.10;;
10452;SDS011;5274;51.992;8.518;2022-08-11T00:35:56;4.90;;;2.60;;
10452;SDS011;5274;51.992;8.518;2022-08-11T00:38:25;2.75;;;2.50;;
10452;SDS011;5274;51.992;8.518;2022-08-11T00:40:55;4.22;;;2.20;;
10452;SDS011;5274;51.992;8.518;2022-08-11T00:43:48;4.47;;;2.55;;
10452;SDS011;5274;51.992;8.518;2022-08-11T00:49:32;3.30;;;2.45;;
10452;SDS011;5274;51.992;8.518;2022-08-11T00:52:23;3.22;;;2.42;;
10452;SDS011;5274;51.992;8.518;2022-08-11T00:55:24;3.40;;;2.40;;
10452;SDS011;5274;51.992;8.518;2022-08-11T01:06:37;4.80;;;2.70;;
10452;SDS011;5274;51.992;8.518;2022-08-11T01:09:23;9.13;;;2.55;;
10452;SDS011;5274;51.992;8.518;2022-08-11T01:18:10;3.50;;;2.33;;
10452;SDS011;5274;51.992;8.518;2022-08-11T01:21:13;6.10;;;2.92;;
10452;SDS011;5274;51.992;8.518;2022-08-11T01:27:06;5.10;;;2.55;;
10452;SDS011;5274;51.992;8.518;2022-08-11T01:30:07;3.33;;;2.40;;
10452;SDS011;5274;51.992;8.518;2022-08-11T01:32:43;3.53;;;2.60;;
10452;SDS011;5274;51.992;8.518;2022-08-11T01:47:08;3.65;;;2.58;;
10452;SDS011;5274;51.992;8.518;2022-08-11T01:50:20;2.30;;;2.10;;
10452;SDS011;5274;51.992;8.518;2022-08-11T01:53:02;2.97;;;2.50;;
10452;SDS011;5274;51.992;8.518;2022-08-11T01:56:02;7.18;;;2.28;;
10452;SDS011;5274;51.992;8.518;2022-08-11T01:58:46;5.25;;;2.30;;
10452;SDS011;5274;51.992;8.518;2022-08-11T02:04:17;2.75;;;2.38;;
10452;SDS011;5274;51.992;8.518;2022-08-11T02:12:38;6.68;;;2.40;;
10452;SDS011;5274;51.992;8.518;2022-08-11T02:15:14;5.18;;;2.47;;
10452;SDS011;5274;51.992;8.518;2022-08-11T02:20:47;7.00;;;2.20;;
10452;SDS011;5274;51.992;8.518;2022-08-11T02:23:48;3.90;;;2.50;;
10452;SDS011;5274;51.992;8.518;2022-08-11T02:26:22;5.72;;;2.65;;
10452;SDS011;5274;51.992;8.518;2022-08-11T02:35:09;3.70;;;2.20;;
10452;SDS011;5274;51.992;8.518;2022-08-11T02:37:47;3.55;;;2.20;;
10452;SDS011;5274;51.992;8.518;2022-08-11T02:40:33;2.85;;;2.55;;
10452;SDS011;5274;51.992;8.518;2022-08-11T02:43:12;3.20;;;2.40;;
10452;SDS011;5274;51.992;8.518;2022-08-11T02:46:00;2.50;;;2.10;;
10452;SDS011;5274;51.992;8.518;2022-08-11T02:48:45;5.57;;;2.70;;
10452;SDS011;5274;51.992;8.518;2022-08-11T02:51:56;4.15;;;2.35;;
10452;SDS011;5274;51.992;8.518;2022-08-11T02:57:29;3.63;;;2.45;;
10452;SDS011;5274;51.992;8.518;2022-08-11T03:00:08;2.55;;;2.28;;
10452;SDS011;5274;51.992;8.518;2022-08-11T03:02:51;3.38;;;2.60;;
10452;SDS011;5274;51.992;8.518;2022-08-11T03:05:32;2.60;;;2.40;;
10452;SDS011;5274;51.992;8.518;2022-08-11T03:08:17;2.78;;;2.17;;
10452;SDS011;5274;51.992;8.518;2022-08-11T03:11:02;4.93;;;2.30;;
10452;SDS011;5274;51.992;8.518;2022-08-11T03:14:28;5.35;;;2.25;;
10452;SDS011;5274;51.992;8.518;2022-08-11T03:20:02;3.17;;;2.65;;
10452;SDS011;5274;51.992;8.518;2022-08-11T03:28:42;6.40;;;2.47;;
10452;SDS011;5274;51.992;8.518;2022-08-11T03:34:25;4.00;;;2.13;;
10452;SDS011;5274;51.992;8.518;2022-08-11T03:37:50;3.75;;;2.75;;
10452;SDS011;5274;51.992;8.518;2022-08-11T03:40:06;3.33;;;2.15;;
10452;SDS011;5274;51.992;8.518;2022-08-11T03:48:08;5.95;;;2.55;;
10452;SDS011;5274;51.992;8.518;2022-08-11T03:51:20;3.17;;;2.30;;
10452;SDS011;5274;51.992;8.518;2022-08-11T04:08:19;5.45;;;2.35;;
10452;SDS011;5274;51.992;8.518;2022-08-11T04:46:52;2.80;;;1.95;;
10452;SDS011;5274;51.992;8.518;2022-08-11T04:50:05;3.03;;;2.20;;
10452;SDS011;5274;51.992;8.518;2022-08-11T04:53:07;4.82;;;2.33;;
10452;SDS011;5274;51.992;8.518;2022-08-11T04:56:14;4.93;;;2.55;;
10452;SDS011;5274;51.992;8.518;2022-08-11T05:13:51;4.57;;;1.88;;
10452;SDS011;5274;51.992;8.518;2022-08-11T05:16:53;2.58;;;2.00;;
10452;SDS011;5274;51.992;8.518;2022-08-11T05:19:53;4.70;;;1.83;;
10452;SDS011;5274;51.992;8.518;2022-08-11T05:22:37;1.73;;;1.63;;
10452;SDS011;5274;51.992;8.518;2022-08-11T05:25:26;3.13;;;1.48;;
10452;SDS011;5274;51.992;8.518;2022-08-11T05:28:15;1.95;;;1.63;;
10452;SDS011;5274;51.992;8.518;2022-08-11T05:31:24;3.05;;;1.58;;
10452;SDS011;5274;51.992;8.518;2022-08-11T05:34:24;2.13;;;1.80;;
10452;SDS011;5274;51.992;8.518;2022-08-11T05:37:30;3.25;;;1.60;;
10452;SDS011;5274;51.992;8.518;2022-08-11T05:40:07;2.38;;;1.58;;
10452;SDS011;5274;51.992;8.518;2022-08-11T05:43:00;6.32;;;1.85;;
10452;SDS011;5274;51.992;8.518;2022-08-11T05:46:04;2.45;;;1.80;;
10452;SDS011;5274;51.992;8.518;2022-08-11T05:48:50;1.83;;;1.60;;
10452;SDS011;5274;51.992;8.518;2022-08-11T05:51:35;5.72;;;1.80;;
10452;SDS011;5274;51.992;8.518;2022-08-11T05:54:29;1.80;;;1.52;;
10452;SDS011;5274;51.992;8.518;2022-08-11T05:57:18;3.65;;;1.55;;
10452;SDS011;5274;51.992;8.518;2022-08-11T05:59:45;1.48;;;1.38;;
10452;SDS011;5274;51.992;8.518;2022-08-11T06:02:12;1.95;;;1.58;;
10452;SDS011;5274;51.992;8.518;2022-08-11T06:04:38;1.77;;;1.63;;
10452;SDS011;5274;51.992;8.518;2022-08-11T06:07:11;2.70;;;1.48;;
10452;SDS011;5274;51.992;8.518;2022-08-11T06:09:48;1.83;;;1.60;;
10452;SDS011;5274;51.992;8.518;2022-08-11T06:12:36;2.53;;;1.50;;
10452;SDS011;5274;51.992;8.518;2022-08-11T06:15:08;3.45;;;1.58;;
10452;SDS011;5274;51.992;8.518;2022-08-11T06:17:42;2.85;;;1.90;;
10452;SDS011;5274;51.992;8.518;2022-08-11T06:20:10;4.10;;;1.30;;
10452;SDS011;5274;51.992;8.518;2022-08-11T06:22:38;1.50;;;1.40;;
10452;SDS011;5274;51.992;8.518;2022-08-11T06:25:07;1.83;;;1.50;;
10452;SDS011;5274;51.992;8.518;2022-08-11T06:27:35;2.70;;;1.70;;
10452;SDS011;5274;51.992;8.518;2022-08-11T06:30:03;3.10;;;1.33;;
10452;SDS011;5274;51.992;8.518;2022-08-11T06:32:37;2.85;;;1.52;;
10452;SDS011;5274;51.992;8.518;2022-08-11T06:37:38;1.95;;;1.45;;
10452;SDS011;5274;51.992;8.518;2022-08-11T06:40:24;3.17;;;1.20;;
10452;SDS011;5274;51.992;8.518;2022-08-11T06:42:56;1.95;;;1.73;;
10452;SDS011;5274;51.992;8.518;2022-08-11T06:45:36;5.68;;;1.77;;
10452;SDS011;5274;51.992;8.518;2022-08-11T06:48:27;5.97;;;1.67;;
10452;SDS011;5274;51.992;8.518;2022-08-11T06:50:56;3.40;;;1.85;;
10452;SDS011;5274;51.992;8.518;2022-08-11T06:56:03;3.05;;;1.90;;
10452;SDS011;5274;51.992;8.518;2022-08-11T06:58:48;3.45;;;1.60;;
10452;SDS011;5274;51.992;8.518;2022-08-11T07:04:23;3.15;;;1.80;;
10452;SDS011;5274;51.992;8.518;2022-08-11T07:10:14;3.00;;;1.90;;
10452;SDS011;5274;51.992;8.518;2022-08-11T07:13:03;3.67;;;2.22;;
10452;SDS011;5274;51.992;8.518;2022-08-11T07:15:48;6.22;;;2.10;;
10452;SDS011;5274;51.992;8.518;2022-08-11T07:18:19;2.60;;;1.77;;
10452;SDS011;5274;51.992;8.518;2022-08-11T07:24:07;6.53;;;2.10;;
10452;SDS011;5274;51.992;8.518;2022-08-11T07:26:56;3.00;;;2.20;;
10452;SDS011;5274;51.992;8.518;2022-08-11T07:29:42;2.10;;;1.90;;
10452;SDS011;5274;51.992;8.518;2022-08-11T07:32:12;5.18;;;2.50;;
10452;SDS011;5274;51.992;8.518;2022-08-11T07:34:43;2.92;;;2.00;;
10452;SDS011;5274;51.992;8.518;2022-08-11T07:37:15;4.63;;;2.00;;
10452;SDS011;5274;51.992;8.518;2022-08-11T07:39:43;6.78;;;2.30;;
10452;SDS011;5274;51.992;8.518;2022-08-11T07:42:20;4.53;;;2.30;;
10452;SDS011;5274;51.992;8.518;2022-08-11T07:44:50;4.45;;;2.33;;
10452;SDS011;5274;51.992;8.518;2022-08-11T07:47:38;9.00;;;2.13;;
10452;SDS011;5274;51.992;8.518;2022-08-11T07:50:23;3.38;;;2.15;;
10452;SDS011;5274;51.992;8.518;2022-08-11T07:53:07;3.75;;;2.05;;
10452;SDS011;5274;51.992;8.518;2022-08-11T07:55:33;4.25;;;2.30;;
10452;SDS011;5274;51.992;8.518;2022-08-11T07:57:59;4.95;;;2.10;;
10452;SDS011;5274;51.992;8.518;2022-08-11T08:00:45;4.68;;;1.83;;
10452;SDS011;5274;51.992;8.518;2022-08-11T08:03:40;4.30;;;2.15;;
10452;SDS011;5274;51.992;8.518;2022-08-11T08:06:26;3.55;;;1.90;;
10452;SDS011;5274;51.992;8.518;2022-08-11T08:09:12;2.13;;;1.73;;
10452;SDS011;5274;51.992;8.518;2022-08-11T08:11:59;4.88;;;1.85;;
10452;SDS011;5274;51.992;8.518;2022-08-11T08:14:44;3.92;;;1.80;;
10452;SDS011;5274;51.992;8.518;2022-08-11T08:17:29;5.07;;;2.33;;
10452;SDS011;5274;51.992;8.518;2022-08-11T08:20:18;2.65;;;1.83;;
10452;SDS011;5274;51.992;8.518;2022-08-11T08:22:47;2.30;;;1.70;;
10452;SDS011;5274;51.992;8.518;2022-08-11T08:25:31;3.17;;;2.08;;
10452;SDS011;5274;51.992;8.518;2022-08-11T08:27:59;2.75;;;2.00;;
10452;SDS011;5274;51.992;8.518;2022-08-11T08:30:27;4.10;;;1.98;;
10452;SDS011;5274;51.992;8.518;2022-08-11T08:33:32;3.92;;;1.70;;
10452;SDS011;5274;51.992;8.518;2022-08-11T08:35:57;6.43;;;2.30;;
10452;SDS011;5274;51.992;8.518;2022-08-11T08:38:48;3.17;;;1.80;;
10452;SDS011;5274;51.992;8.518;2022-08-11T08:41:22;3.25;;;2.10;;
10452;SDS011;5274;51.992;8.518;2022-08-11T08:43:52;3.33;;;2.10;;
10452;SDS011;5274;51.992;8.518;2022-08-11T08:46:22;4.13;;;1.90;;
10452;SDS011;5274;51.992;8.518;2022-08-11T08:48:51;7.53;;;1.88;;
10452;SDS011;5274;51.992;8.518;2022-08-11T08:51:18;2.85;;;1.92;;
10452;SDS011;5274;51.992;8.518;2022-08-11T08:54:04;4.22;;;2.22;;
10452;SDS011;5274;51.992;8.518;2022-08-11T08:56:33;2.28;;;1.83;;
10452;SDS011;5274;51.992;8.518;2022-08-11T08:59:03;2.70;;;1.80;;
10452;SDS011;5274;51.992;8.518;2022-08-11T09:01:31;5.70;;;2.22;;
10452;SDS011;5274;51.992;8.518;2022-08-11T09:04:02;2.88;;;2.20;;
10452;SDS011;5274;51.992;8.518;2022-08-11T09:06:38;2.53;;;1.92;;
10452;SDS011;5274;51.992;8.518;2022-08-11T09:09:06;4.13;;;1.92;;
10452;SDS011;5274;51.992;8.518;2022-08-11T09:11:33;6.78;;;1.90;;
10452;SDS011;5274;51.992;8.518;2022-08-11T09:14:15;4.15;;;2.42;;
10452;SDS011;5274;51.992;8.518;2022-08-11T09:16:42;2.35;;;2.13;;
10452;SDS011;5274;51.992;8.518;2022-08-11T09:19:09;3.67;;;1.98;;
10452;SDS011;5274;51.992;8.518;2022-08-11T09:21:40;6.53;;;2.22;;
10452;SDS011;5274;51.992;8.518;2022-08-11T09:24:07;5.63;;;2.25;;
10452;SDS011;5274;51.992;8.518;2022-08-11T09:26:51;3.53;;;2.35;;
10452;SDS011;5274;51.992;8.518;2022-08-11T09:29:23;4.65;;;2.40;;
10452;SDS011;5274;51.992;8.518;2022-08-11T09:31:51;2.60;;;2.30;;
10452;SDS011;5274;51.992;8.518;2022-08-11T09:34:18;4.38;;;2.42;;
10452;SDS011;5274;51.992;8.518;2022-08-11T09:36:43;2.65;;;2.13;;
10452;SDS011;5274;51.992;8.518;2022-08-11T09:39:29;6.80;;;2.63;;
10452;SDS011;5274;51.992;8.518;2022-08-11T09:42:14;6.78;;;2.63;;
10452;SDS011;5274;51.992;8.518;2022-08-11T09:44:43;4.22;;;2.25;;
10452;SDS011;5274;51.992;8.518;2022-08-11T09:47:16;3.88;;;2.00;;
10452;SDS011;5274;51.992;8.518;2022-08-11T09:49:54;2.58;;;2.25;;
10452;SDS011;5274;51.992;8.518;2022-08-11T09:52:23;4.70;;;2.17;;
10452;SDS011;5274;51.992;8.518;2022-08-11T09:54:49;2.67;;;2.08;;
10452;SDS011;5274;51.992;8.518;2022-08-11T09:57:19;3.08;;;2.60;;
10452;SDS011;5274;51.992;8.518;2022-08-11T10:00:05;2.40;;;2.10;;
10452;SDS011;5274;51.992;8.518;2022-08-11T10:02:32;3.50;;;2.47;;
10452;SDS011;5274;51.992;8.518;2022-08-11T10:05:02;5.07;;;2.53;;
10452;SDS011;5274;51.992;8.518;2022-08-11T10:07:48;6.13;;;2.30;;
10452;SDS011;5274;51.992;8.518;2022-08-11T10:10:16;6.00;;;2.35;;
10452;SDS011;5274;51.992;8.518;2022-08-11T10:12:51;3.80;;;2.30;;
10452;SDS011;5274;51.992;8.518;2022-08-11T10:15:28;4.25;;;2.40;;
10452;SDS011;5274;51.992;8.518;2022-08-11T10:18:17;3.38;;;2.17;;
10452;SDS011;5274;51.992;8.518;2022-08-11T10:21:11;2.47;;;2.28;;
10452;SDS011;5274;51.992;8.518;2022-08-11T10:24:00;5.25;;;2.30;;
10452;SDS011;5274;51.992;8.518;2022-08-11T10:26:45;3.78;;;2.28;;
10452;SDS011;5274;51.992;8.518;2022-08-11T10:29:32;3.00;;;2.63;;
10452;SDS011;5274;51.992;8.518;2022-08-11T10:32:22;4.63;;;2.20;;
10452;SDS011;5274;51.992;8.518;2022-08-11T10:35:08;3.47;;;2.92;;
10452;SDS011;5274;51.992;8.518;2022-08-11T10:37:37;2.65;;;2.30;;
10452;SDS011;5274;51.992;8.518;2022-08-11T10:40:05;6.85;;;2.33;;
10452;SDS011;5274;51.992;8.518;2022-08-11T10:42:33;2.60;;;2.40;;
10452;SDS011;5274;51.992;8.518;2022-08-11T10:45:17;3.10;;;2.75;;
10452;SDS011;5274;51.992;8.518;2022-08-11T10:48:03;5.93;;;2.50;;
10452;SDS011;5274;51.992;8.518;2022-08-11T10:50:31;4.93;;;2.90;;
10452;SDS011;5274;51.992;8.518;2022-08-11T10:53:16;2.70;;;2.40;;
10452;SDS011;5274;51.992;8.518;2022-08-11T10:56:01;2.70;;;2.50;;
10452;SDS011;5274;51.992;8.518;2022-08-11T10:58:47;2.67;;;2.22;;
10452;SDS011;5274;51.992;8.518;2022-08-11T11:03:46;5.50;;;2.92;;
10452;SDS011;5274;51.992;8.518;2022-08-11T11:06:20;5.10;;;2.50;;
10452;SDS011;5274;51.992;8.518;2022-08-11T11:08:50;3.22;;;2.80;;
10452;SDS011;5274;51.992;8.518;2022-08-11T11:11:21;4.60;;;2.45;;
10452;SDS011;5274;51.992;8.518;2022-08-11T11:14:14;2.45;;;2.17;;
10452;SDS011;5274;51.992;8.518;2022-08-11T11:17:00;3.40;;;2.58;;
10452;SDS011;5274;51.992;8.518;2022-08-11T11:19:37;2.47;;;2.28;;
10452;SDS011;5274;51.992;8.518;2022-08-11T11:22:04;3.53;;;2.40;;
10452;SDS011;5274;51.992;8.518;2022-08-11T11:30:44;3.45;;;1.90;;
10452;SDS011;5274;51.992;8.518;2022-08-11T11:33:41;5.72;;;2.10;;
10452;SDS011;5274;51.992;8.518;2022-08-11T11:39:11;5.28;;;2.22;;
10452;SDS011;5274;51.992;8.518;2022-08-11T11:41:37;5.10;;;2.35;;
10452;SDS011;5274;51.992;8.518;2022-08-11T11:44:03;3.67;;;2.33;;
10452;SDS011;5274;51.992;8.518;2022-08-11T11:46:29;3.90;;;2.05;;
10452;SDS011;5274;51.992;8.518;2022-08-11T11:48:56;5.07;;;2.05;;
10452;SDS011;5274;51.992;8.518;2022-08-11T11:51:24;4.45;;;2.35;;
10452;SDS011;5274;51.992;8.518;2022-08-11T11:53:51;2.60;;;2.03;;
10452;SDS011;5274;51.992;8.518;2022-08-11T11:56:18;4.55;;;1.90;;
10452;SDS011;5274;51.992;8.518;2022-08-11T11:58:47;2.33;;;2.08;;
10452;SDS011;5274;51.992;8.518;2022-08-11T12:01:32;3.72;;;1.75;;
10452;SDS011;5274;51.992;8.518;2022-08-11T12:03:58;2.05;;;1.80;;
10452;SDS011;5274;51.992;8.518;2022-08-11T12:06:27;3.50;;;1.80;;
10452;SDS011;5274;51.992;8.518;2022-08-11T12:08:53;3.13;;;1.80;;
10452;SDS011;5274;51.992;8.518;2022-08-11T12:11:22;2.72;;;1.70;;
10452;SDS011;5274;51.992;8.518;2022-08-11T12:14:08;2.80;;;1.40;;
10452;SDS011;5274;51.992;8.518;2022-08-11T12:16:38;1.85;;;1.70;;
10452;SDS011;5274;51.992;8.518;2022-08-11T12:19:09;2.85;;;2.00;;
10452;SDS011;5274;51.992;8.518;2022-08-11T12:21:38;2.67;;;1.98;;
10452;SDS011;5274;51.992;8.518;2022-08-11T12:24:25;6.68;;;1.77;;
10452;SDS011;5274;51.992;8.518;2022-08-11T12:27:10;2.03;;;1.80;;
10452;SDS011;5274;51.992;8.518;2022-08-11T12:30:04;4.85;;;1.88;;
10452;SDS011;5274;51.992;8.518;2022-08-11T12:32:31;4.57;;;1.83;;
10452;SDS011;5274;51.992;8.518;2022-08-11T12:34:59;1.80;;;1.70;;
10452;SDS011;5274;51.992;8.518;2022-08-11T12:37:33;1.58;;;1.48;;
10452;SDS011;5274;51.992;8.518;2022-08-11T12:40:08;4.55;;;1.50;;
10452;SDS011;5274;51.992;8.518;2022-08-11T12:42:57;1.90;;;1.73;;
10452;SDS011;5274;51.992;8.518;2022-08-11T12:45:44;3.20;;;1.60;;
10452;SDS011;5274;51.992;8.518;2022-08-11T12:48:12;2.78;;;1.73;;
10452;SDS011;5274;51.992;8.518;2022-08-11T12:51:01;1.90;;;1.63;;
10452;SDS011;5274;51.992;8.518;2022-08-11T12:53:51;3.33;;;1.60;;
10452;SDS011;5274;51.992;8.518;2022-08-11T12:56:19;3.38;;;1.50;;
10452;SDS011;5274;51.992;8.518;2022-08-11T12:59:05;2.25;;;1.50;;
10452;SDS011;5274;51.992;8.518;2022-08-11T13:01:51;4.30;;;1.73;;
10452;SDS011;5274;51.992;8.518;2022-08-11T13:04:36;7.97;;;1.50;;
10452;SDS011;5274;51.992;8.518;2022-08-11T13:07:23;9.48;;;1.98;;
10452;SDS011;5274;51.992;8.518;2022-08-11T13:09:54;3.83;;;1.77;;
10452;SDS011;5274;51.992;8.518;2022-08-11T13:12:22;3.33;;;1.77;;
10452;SDS011;5274;51.992;8.518;2022-08-11T13:15:07;2.63;;;1.75;;
10452;SDS011;5274;51.992;8.518;2022-08-11T13:17:35;3.88;;;2.00;;
10452;SDS011;5274;51.992;8.518;2022-08-11T13:20:02;3.50;;;1.70;;
10452;SDS011;5274;51.992;8.518;2022-08-11T13:22:29;4.40;;;1.67;;
10452;SDS011;5274;51.992;8.518;2022-08-11T13:24:55;2.40;;;1.63;;
10452;SDS011;5274;51.992;8.518;2022-08-11T13:27:22;2.75;;;1.63;;
10452;SDS011;5274;51.992;8.518;2022-08-11T13:29:48;3.42;;;1.52;;
10452;SDS011;5274;51.992;8.518;2022-08-11T13:32:16;6.97;;;2.08;;
10452;SDS011;5274;51.992;8.518;2022-08-11T13:34:45;2.90;;;1.75;;
10452;SDS011;5274;51.992;8.518;2022-08-11T13:37:12;3.65;;;1.92;;
10452;SDS011;5274;51.992;8.518;2022-08-11T13:39:39;2.08;;;1.50;;
10452;SDS011;5274;51.992;8.518;2022-08-11T13:42:11;1.73;;;1.63;;
10452;SDS011;5274;51.992;8.518;2022-08-11T13:44:38;5.30;;;1.38;;
10452;SDS011;5274;51.992;8.518;2022-08-11T13:47:06;2.70;;;1.42;;
10452;SDS011;5274;51.992;8.518;2022-08-11T13:49:35;4.03;;;1.70;;
10452;SDS011;5274;51.992;8.518;2022-08-11T13:52:03;6.57;;;1.70;;
10452;SDS011;5274;51.992;8.518;2022-08-11T13:54:31;2.65;;;1.55;;
10452;SDS011;5274;51.992;8.518;2022-08-11T13:57:00;1.70;;;1.50;;
10452;SDS011;5274;51.992;8.518;2022-08-11T13:59:29;4.30;;;1.50;;
10452;SDS011;5274;51.992;8.518;2022-08-11T14:01:56;5.25;;;1.35;;
10452;SDS011;5274;51.992;8.518;2022-08-11T14:04:29;1.80;;;1.58;;
10452;SDS011;5274;51.992;8.518;2022-08-11T14:07:02;6.07;;;1.85;;
10452;SDS011;5274;51.992;8.518;2022-08-11T14:09:31;2.58;;;1.75;;
10452;SDS011;5274;51.992;8.518;2022-08-11T14:12:01;1.98;;;1.48;;
10452;SDS011;5274;51.992;8.518;2022-08-11T14:15:13;4.97;;;1.85;;
10452;SDS011;5274;51.992;8.518;2022-08-11T14:17:43;3.45;;;1.48;;
10452;SDS011;5274;51.992;8.518;2022-08-11T14:20:13;2.35;;;1.60;;
10452;SDS011;5274;51.992;8.518;2022-08-11T14:22:42;4.90;;;1.42;;
10452;SDS011;5274;51.992;8.518;2022-08-11T14:25:10;2.05;;;1.38;;
10452;SDS011;5274;51.992;8.518;2022-08-11T14:27:39;3.10;;;1.50;;
10452;SDS011;5274;51.992;8.518;2022-08-11T14:30:05;5.13;;;1.67;;
10452;SDS011;5274;51.992;8.518;2022-08-11T14:32:51;2.13;;;1.38;;
10452;SDS011;5274;51.992;8.518;2022-08-11T14:35:18;1.83;;;1.73;;
10452;SDS011;5274;51.992;8.518;2022-08-11T14:37:43;2.58;;;1.35;;
10452;SDS011;5274;51.992;8.518;2022-08-11T14:40:09;1.75;;;1.63;;
10452;SDS011;5274;51.992;8.518;2022-08-11T14:42:55;2.85;;;1.60;;
10452;SDS011;5274;51.992;8.518;2022-08-11T14:45:41;5.90;;;1.77;;
10452;SDS011;5274;51.992;8.518;2022-08-11T14:48:28;1.73;;;1.40;;
10452;SDS011;5274;51.992;8.518;2022-08-11T14:50:53;5.47;;;1.95;;
10452;SDS011;5274;51.992;8.518;2022-08-11T14:53:20;1.60;;;1.50;;
10452;SDS011;5274;51.992;8.518;2022-08-11T14:55:47;10.10;;;1.50;;
10452;SDS011;5274;51.992;8.518;2022-08-11T14:58:31;1.27;;;1.27;;
10452;SDS011;5274;51.992;8.518;2022-08-11T15:01:00;1.50;;;1.30;;
10452;SDS011;5274;51.992;8.518;2022-08-11T15:03:28;1.55;;;1.45;;
10452;SDS011;5274;51.992;8.518;2022-08-11T15:06:00;1.70;;;1.60;;
10452;SDS011;5274;51.992;8.518;2022-08-11T15:08:32;1.50;;;1.40;;
10452;SDS011;5274;51.992;8.518;2022-08-11T15:11:19;1.45;;;1.35;;
10452;SDS011;5274;51.992;8.518;2022-08-11T15:14:06;4.07;;;1.63;;
10452;SDS011;5274;51.992;8.518;2022-08-11T15:16:33;1.92;;;1.42;;
10452;SDS011;5274;51.992;8.518;2022-08-11T15:19:20;7.80;;;1.50;;
10452;SDS011;5274;51.992;8.518;2022-08-11T15:21:46;1.60;;;1.50;;
10452;SDS011;5274;51.992;8.518;2022-08-11T15:24:31;1.58;;;1.48;;
10452;SDS011;5274;51.992;8.518;2022-08-11T15:27:00;1.75;;;1.52;;
10452;SDS011;5274;51.992;8.518;2022-08-11T15:29:48;4.90;;;1.70;;
10452;SDS011;5274;51.992;8.518;2022-08-11T15:32:36;1.92;;;1.70;;
10452;SDS011;5274;51.992;8.518;2022-08-11T15:35:23;1.60;;;1.50;;
10452;SDS011;5274;51.992;8.518;2022-08-11T15:38:10;2.10;;;1.58;;
10452;SDS011;5274;51.992;8.518;2022-08-11T15:40:39;2.97;;;1.73;;
10452;SDS011;5274;51.992;8.518;2022-08-11T15:43:30;5.80;;;1.80;;
10452;SDS011;5274;51.992;8.518;2022-08-11T15:46:22;5.97;;;1.80;;
10452;SDS011;5274;51.992;8.518;2022-08-11T15:49:02;1.98;;;1.42;;
10452;SDS011;5274;51.992;8.518;2022-08-11T15:51:33;3.08;;;1.73;;
10452;SDS011;5274;51.992;8.518;2022-08-11T15:54:07;6.63;;;1.80;;
10452;SDS011;5274;51.992;8.518;2022-08-11T15:56:36;2.25;;;1.40;;
10452;SDS011;5274;51.992;8.518;2022-08-11T15:59:05;5.72;;;1.83;;
10452;SDS011;5274;51.992;8.518;2022-08-11T16:01:52;5.45;;;1.70;;
10452;SDS011;5274;51.992;8.518;2022-08-11T16:04:38;3.20;;;1.65;;
10452;SDS011;5274;51.992;8.518;2022-08-11T16:07:12;3.85;;;1.60;;
10452;SDS011;5274;51.992;8.518;2022-08-11T16:09:46;8.55;;;1.75;;
10452;SDS011;5274;51.992;8.518;2022-08-11T16:12:16;1.52;;;1.42;;
10452;SDS011;5274;51.992;8.518;2022-08-11T16:14:45;2.10;;;1.83;;
10452;SDS011;5274;51.992;8.518;2022-08-11T16:17:36;4.45;;;1.65;;
10452;SDS011;5274;51.992;8.518;2022-08-11T16:20:15;2.08;;;1.70;;
10452;SDS011;5274;51.992;8.518;2022-08-11T16:22:44;2.92;;;1.40;;
10452;SDS011;5274;51.992;8.518;2022-08-11T16:25:19;2.78;;;1.95;;
10452;SDS011;5274;51.992;8.518;2022-08-11T16:27:48;1.70;;;1.60;;
10452;SDS011;5274;51.992;8.518;2022-08-11T16:30:16;1.73;;;1.60;;
10452;SDS011;5274;51.992;8.518;2022-08-11T16:32:43;3.58;;;1.50;;
10452;SDS011;5274;51.992;8.518;2022-08-11T16:35:15;2.65;;;1.60;;
10452;SDS011;5274;51.992;8.518;2022-08-11T16:38:04;1.83;;;1.73;;
10452;SDS011;5274;51.992;8.518;2022-08-11T16:40:53;1.60;;;1.50;;
10452;SDS011;5274;51.992;8.518;2022-08-11T16:43:20;2.40;;;1.70;;
10452;SDS011;5274;51.992;8.518;2022-08-11T16:46:06;2.65;;;1.80;;
10452;SDS011;5274;51.992;8.518;2022-08-11T16:48:51;2.83;;;1.65;;
10452;SDS011;5274;51.992;8.518;2022-08-11T16:51:18;6.15;;;1.88;;
10452;SDS011;5274;51.992;8.518;2022-08-11T16:53:45;3.00;;;1.70;;
10452;SDS011;5274;51.992;8.518;2022-08-11T16:56:17;4.75;;;2.10;;
10452;SDS011;5274;51.992;8.518;2022-08-11T16:58:49;2.38;;;1.70;;
10452;SDS011;5274;51.992;8.518;2022-08-11T17:01:52;5.32;;;1.88;;
10452;SDS011;5274;51.992;8.518;2022-08-11T17:07:19;2.58;;;1.77;;
10452;SDS011;5274;51.992;8.518;2022-08-11T17:10:06;1.88;;;1.52;;
10452;SDS011;5274;51.992;8.518;2022-08-11T17:12:55;1.98;;;1.88;;
10452;SDS011;5274;51.992;8.518;2022-08-11T17:15:35;3.03;;;1.90;;
10452;SDS011;5274;51.992;8.518;2022-08-11T17:18:23;3.42;;;1.75;;
10452;SDS011;5274;51.992;8.518;2022-08-11T17:21:06;8.40;;;1.88;;
10452;SDS011;5274;51.992;8.518;2022-08-11T17:23:54;2.70;;;1.67;;
10452;SDS011;5274;51.992;8.518;2022-08-11T17:29:25;4.10;;;1.83;;
10452;SDS011;5274;51.992;8.518;2022-08-11T17:31:51;2.58;;;1.60;;
10452;SDS011;5274;51.992;8.518;2022-08-11T17:34:36;2.45;;;1.63;;
10452;SDS011;5274;51.992;8.518;2022-08-11T17:37:22;3.35;;;1.70;;
10452;SDS011;5274;51.992;8.518;2022-08-11T17:39:49;2.80;;;1.80;;
10452;SDS011;5274;51.992;8.518;2022-08-11T17:42:16;4.28;;;1.85;;
10452;SDS011;5274;51.992;8.518;2022-08-11T17:45:01;2.10;;;1.90;;
10452;SDS011;5274;51.992;8.518;2022-08-11T17:47:47;2.20;;;1.90;;
10452;SDS011;5274;51.992;8.518;2022-08-11T17:50:32;4.53;;;1.63;;
10452;SDS011;5274;51.992;8.518;2022-08-11T17:53:00;4.25;;;2.13;;
10452;SDS011;5274;51.992;8.518;2022-08-11T17:55:45;5.35;;;1.90;;
10452;SDS011;5274;51.992;8.518;2022-08-11T17:58:31;3.38;;;1.65;;
10452;SDS011;5274;51.992;8.518;2022-08-11T18:01:16;3.53;;;1.88;;
10452;SDS011;5274;51.992;8.518;2022-08-11T18:03:44;3.28;;;1.88;;
10452;SDS011;5274;51.992;8.518;2022-08-11T18:06:11;5.53;;;2.05;;
10452;SDS011;5274;51.992;8.518;2022-08-11T18:08:42;5.75;;;1.70;;
10452;SDS011;5274;51.992;8.518;2022-08-11T18:11:29;6.47;;;1.90;;
10452;SDS011;5274;51.992;8.518;2022-08-11T18:14:15;3.42;;;1.85;;
10452;SDS011;5274;51.992;8.518;2022-08-11T18:17:01;4.45;;;2.05;;
10452;SDS011;5274;51.992;8.518;2022-08-11T18:19:45;4.72;;;1.83;;
10452;SDS011;5274;51.992;8.518;2022-08-11T18:22:30;3.90;;;2.30;;
10452;SDS011;5274;51.992;8.518;2022-08-11T18:25:19;3.08;;;2.00;;
10452;SDS011;5274;51.992;8.518;2022-08-11T18:28:07;2.67;;;2.08;;
10452;SDS011;5274;51.992;8.518;2022-08-11T18:30:56;2.78;;;1.77;;
10452;SDS011;5274;51.992;8.518;2022-08-11T18:33:47;3.33;;;1.80;;
10452;SDS011;5274;51.992;8.518;2022-08-11T18:36:53;2.42;;;1.70;;
10452;SDS011;5274;51.992;8.518;2022-08-11T18:39:46;4.93;;;2.03;;
10452;SDS011;5274;51.992;8.518;2022-08-11T18:42:40;2.47;;;2.28;;
10452;SDS011;5274;51.992;8.518;2022-08-11T18:45:26;3.35;;;2.10;;
10452;SDS011;5274;51.992;8.518;2022-08-11T18:48:11;2.42;;;2.08;;
10452;SDS011;5274;51.992;8.518;2022-08-11T18:50:59;2.42;;;2.08;;
10452;SDS011;5274;51.992;8.518;2022-08-11T18:53:52;4.47;;;2.10;;
10452;SDS011;5274;51.992;8.518;2022-08-11T18:56:40;2.33;;;1.75;;
10452;SDS011;5274;51.992;8.518;2022-08-11T18:59:27;8.13;;;2.10;;